Time;durP1;ratioP1;P1;durP2;ratioP2;P2;SDS_P1;SDS_P2;PMS_P1;PMS_P2;Temp;Humidity;BMP_temperature;BMP_pressure;BME280_temperature;BME280_humidity;BME280_pressure;Samples;Min_cycle;Max_cycle;Signal;HPM_P1;HPM_P2
2022/11/04 00:02:25;;;;;;;3.33;2.23;;;14.60;84.10;;;-142.21;100.00;112049.66;5030946;28;20485;-74
2022/11/04 00:04:52;;;;;;;2.80;2.50;;;14.60;84.60;;;-142.21;100.00;112049.66;5027732;28;20449;-74
2022/11/04 00:10:04;;;;;;;3.30;2.83;;;14.60;84.10;;;-142.21;100.00;112049.66;5017404;28;20488;-74
2022/11/04 00:12:30;;;;;;;3.30;2.73;;;14.60;84.20;;;-142.21;100.00;112049.66;4966598;28;20805;-74
2022/11/04 00:17:18;;;;;;;2.87;2.20;;;14.60;83.70;;;-142.21;100.00;112049.66;5029759;28;20786;-75
2022/11/04 00:17:46;;;;;;;2.87;2.20;;;14.60;83.90;;;-142.21;100.00;112049.66;5027280;28;20489;-74
2022/11/04 00:33:59;;;;;;;3.30;1.87;;;14.60;83.70;;;-142.21;100.00;112049.66;5016690;28;20484;-73
2022/11/04 00:36:27;;;;;;;1.97;1.80;;;14.60;84.10;;;-142.21;100.00;112049.66;5019126;28;20445;-73
2022/11/04 00:38:54;;;;;;;2.87;1.70;;;14.60;83.50;;;-142.21;100.00;112049.66;5015881;28;20579;-73
2022/11/04 00:41:28;;;;;;;2.17;1.90;;;14.60;83.40;;;-142.21;100.00;112049.66;5022464;28;20472;-73
2022/11/04 00:43:58;;;;;;;1.80;1.70;;;14.50;82.90;;;-142.21;100.00;112049.66;5024865;28;20914;-73
2022/11/04 00:46:30;;;;;;;2.30;2.10;;;14.50;82.70;;;-142.21;100.00;112049.66;5030131;28;20537;-73
2022/11/04 00:48:59;;;;;;;2.57;1.73;;;14.50;82.30;;;-142.21;100.00;112049.66;5015959;28;20434;-73
2022/11/04 00:51:27;;;;;;;2.13;1.90;;;14.40;81.90;;;-142.21;100.00;112049.66;5015796;28;20446;-74
2022/11/04 00:53:54;;;;;;;2.10;1.80;;;14.40;82.40;;;-142.21;100.00;112049.66;5019322;28;20992;-73
2022/11/04 00:56:21;;;;;;;1.77;1.67;;;14.50;82.30;;;-142.21;100.00;112049.66;5019294;28;20455;-73
2022/11/04 00:58:49;;;;;;;1.90;1.60;;;14.50;81.90;;;-142.21;100.00;112049.66;5027122;28;20481;-73
2022/11/04 01:01:18;;;;;;;3.57;1.80;;;14.50;81.70;;;-142.21;100.00;112049.66;5014770;28;20953;-73
2022/11/04 01:03:48;;;;;;;2.17;1.70;;;14.50;81.40;;;-142.21;100.00;112049.66;5020617;28;20541;-73
2022/11/04 01:06:18;;;;;;;2.20;1.70;;;14.50;81.40;;;-142.21;100.00;112049.66;5015449;28;20552;-74
2022/11/04 01:08:47;;;;;;;2.07;1.33;;;14.50;81.40;;;-142.21;100.00;112049.66;5025230;28;20527;-74
2022/11/04 01:11:15;;;;;;;1.63;1.50;;;14.50;81.00;;;-142.21;100.00;112049.66;5026687;28;20484;-73
2022/11/04 01:13:43;;;;;;;1.50;1.40;;;14.60;80.90;;;-142.21;100.00;112049.66;5014165;28;20896;-74
2022/11/04 01:16:12;;;;;;;2.03;1.40;;;14.50;80.80;;;-142.21;100.00;112049.66;5030164;28;20453;-74
2022/11/04 01:18:41;;;;;;;2.40;1.27;;;14.60;80.70;;;-142.21;100.00;112049.66;5017879;28;20480;-73
2022/11/04 01:21:12;;;;;;;2.13;1.27;;;14.50;80.60;;;-142.21;100.00;112049.66;5021867;28;20812;-74
2022/11/04 01:23:45;;;;;;;1.43;1.33;;;14.50;80.20;;;-142.21;100.00;112049.66;5020135;28;20446;-74
2022/11/04 01:26:17;;;;;;;1.83;1.30;;;14.50;80.50;;;-142.21;100.00;112049.66;5014833;28;20449;-74
2022/11/04 01:28:45;;;;;;;2.70;1.60;;;14.50;80.50;;;-142.21;100.00;112049.66;5026950;28;20434;-74
2022/11/04 01:31:22;;;;;;;2.47;1.70;;;14.50;80.50;;;-142.21;100.00;112049.66;5020325;28;20452;-74
2022/11/04 01:33:50;;;;;;;2.40;1.47;;;14.50;80.70;;;-142.21;100.00;112049.66;5029338;28;20445;-74
2022/11/04 01:36:19;;;;;;;2.30;1.50;;;14.40;80.10;;;-142.21;100.00;112049.66;5018535;28;20546;-75
2022/11/04 01:38:49;;;;;;;3.13;1.50;;;14.50;80.80;;;-142.21;100.00;112049.66;5018224;28;20473;-74
2022/11/04 01:41:20;;;;;;;2.10;1.00;;;14.50;80.60;;;-142.21;100.00;112049.66;5015172;28;20458;-74
2022/11/04 01:43:54;;;;;;;1.47;1.37;;;14.50;80.60;;;-142.21;100.00;112049.66;5010586;28;20451;-74
2022/11/04 01:46:38;;;;;;;0.93;0.93;;;14.40;80.50;;;-142.21;100.00;112049.66;5022850;28;20440;-74
2022/11/04 01:49:24;;;;;;;2.00;1.20;;;14.40;81.10;;;-142.21;100.00;112049.66;5028128;28;20461;-73
2022/11/04 01:51:56;;;;;;;1.77;1.20;;;14.40;81.20;;;-142.21;100.00;112049.66;5026530;28;20445;-74
2022/11/04 01:54:26;;;;;;;1.63;1.10;;;14.40;80.90;;;-142.21;100.00;112049.66;5025845;28;20949;-74
2022/11/04 01:56:55;;;;;;;1.17;1.07;;;14.50;81.10;;;-142.21;100.00;112049.66;5032822;28;20528;-74
2022/11/04 01:59:28;;;;;;;2.97;1.60;;;14.40;81.10;;;-142.21;100.00;112049.66;5025442;28;20492;-74
2022/11/04 02:01:55;;;;;;;2.70;1.63;;;14.50;81.80;;;-142.21;100.00;112049.66;5012915;28;20438;-74
2022/11/04 02:04:28;;;;;;;1.90;1.43;;;14.40;80.80;;;-142.21;100.00;112049.66;5015497;28;20976;-73
2022/11/04 02:07:00;;;;;;;1.63;1.53;;;14.30;80.90;;;-142.21;100.00;112049.66;5014324;28;20552;-73
2022/11/04 02:09:33;;;;;;;2.20;1.53;;;14.20;80.90;;;-142.21;100.00;112049.66;5015840;28;20581;-74
2022/11/04 02:14:48;;;;;;;2.17;1.60;;;14.20;81.10;;;-142.21;100.00;112049.66;5016850;28;20839;-74
2022/11/04 02:17:37;;;;;;;1.40;1.10;;;14.20;81.20;;;-142.21;100.00;112049.66;5021345;28;20444;-73
2022/11/04 02:20:42;;;;;;;1.63;1.20;;;14.10;81.10;;;-142.21;100.00;112049.66;5022927;28;20557;-74
2022/11/04 02:24:08;;;;;;;1.57;1.47;;;14.10;81.70;;;-142.21;100.00;112049.66;5004295;28;20616;-73
2022/11/04 02:27:15;;;;;;;3.30;1.20;;;14.00;81.30;;;-142.21;100.00;112049.66;5014472;28;20533;-73
2022/11/04 02:30:04;;;;;;;2.57;1.57;;;13.90;81.30;;;-142.21;100.00;112049.66;5022615;28;20452;-73
2022/11/04 02:33:22;;;;;;;1.33;1.03;;;13.90;81.40;;;-142.21;100.00;112049.66;5026419;28;20442;-73
2022/11/04 02:36:03;;;;;;;1.33;1.23;;;13.70;81.30;;;-142.21;100.00;112049.66;5018100;28;20450;-73
2022/11/04 02:38:39;;;;;;;2.30;1.90;;;13.70;81.50;;;-142.21;100.00;112049.66;4991773;28;20484;-73
2022/11/04 02:41:22;;;;;;;4.03;2.40;;;13.70;81.40;;;-142.21;100.00;112049.66;5016347;28;20946;-72
2022/11/04 02:44:06;;;;;;;2.03;1.60;;;13.70;81.40;;;-142.21;100.00;112049.66;4991847;28;20543;-73
2022/11/04 02:46:43;;;;;;;2.70;2.20;;;13.60;81.10;;;-142.21;100.00;112049.66;5020553;28;20441;-73
2022/11/04 02:49:14;;;;;;;5.53;2.97;;;13.60;81.40;;;-142.21;100.00;112049.66;5017354;28;20964;-73
2022/11/04 02:51:50;;;;;;;4.03;3.13;;;13.60;81.30;;;-142.21;100.00;112049.66;5024559;28;20446;-73
2022/11/04 02:54:25;;;;;;;3.03;2.17;;;13.60;81.20;;;-142.21;100.00;112049.66;5014789;28;20452;-73
2022/11/04 02:57:01;;;;;;;3.17;2.03;;;13.60;81.10;;;-142.21;100.00;112049.66;5016289;28;20797;-73
2022/11/04 02:59:36;;;;;;;4.60;1.70;;;13.60;81.00;;;-142.21;100.00;112049.66;5028385;28;20832;-73
2022/11/04 03:02:10;;;;;;;3.23;1.60;;;13.60;80.80;;;-142.21;100.00;112049.66;5010799;28;20528;-73
2022/11/04 03:04:42;;;;;;;2.03;1.60;;;13.70;80.90;;;-142.21;100.00;112049.66;5018203;28;20441;-73
2022/11/04 03:07:14;;;;;;;2.00;1.53;;;13.70;80.70;;;-142.21;100.00;112049.66;5032073;28;20473;-73
2022/11/04 03:09:49;;;;;;;2.53;1.87;;;13.60;80.50;;;-142.21;100.00;112049.66;5031738;28;20842;-73
2022/11/04 03:12:24;;;;;;;1.37;1.27;;;13.70;80.40;;;-142.21;100.00;112049.66;5032180;28;20847;-73
2022/11/04 03:14:58;;;;;;;5.57;1.40;;;13.70;80.60;;;-142.21;100.00;112049.66;5032740;28;20441;-73
2022/11/04 03:17:37;;;;;;;2.90;1.30;;;13.60;80.50;;;-142.21;100.00;112049.66;5032296;28;20425;-73
2022/11/04 03:20:13;;;;;;;5.93;4.00;;;13.60;80.70;;;-142.21;100.00;112049.66;5021925;28;20489;-74
2022/11/04 03:22:40;;;;;;;3.57;1.90;;;13.60;80.80;;;-142.21;100.00;112049.66;5037029;28;20497;-73
2022/11/04 03:25:09;;;;;;;1.93;1.60;;;13.70;80.50;;;-142.21;100.00;112049.66;5027789;28;20492;-73
2022/11/04 03:27:49;;;;;;;4.90;3.17;;;13.70;80.30;;;-142.21;100.00;112049.66;5020234;28;20449;-74
2022/11/04 03:30:20;;;;;;;4.37;3.87;;;13.80;80.00;;;-142.21;100.00;112049.66;5047178;28;20489;-73
2022/11/04 03:33:03;;;;;;;4.13;3.10;;;13.70;79.90;;;-142.21;100.00;112049.66;5036851;28;20456;-74
2022/11/04 03:35:32;;;;;;;2.87;2.20;;;13.70;80.00;;;-142.21;100.00;112049.66;5027604;28;20457;-74
2022/11/04 03:38:00;;;;;;;2.93;1.50;;;13.70;80.80;;;-142.21;100.00;112049.66;5015278;28;20460;-73
2022/11/04 03:40:27;;;;;;;3.03;1.40;;;13.60;79.70;;;-142.21;100.00;112049.66;5025587;28;20540;-73
2022/11/04 03:43:00;;;;;;;1.60;1.50;;;13.60;79.90;;;-142.21;100.00;112049.66;5029023;28;20445;-73
2022/11/04 03:45:34;;;;;;;4.30;2.13;;;13.60;80.10;;;-142.21;100.00;112049.66;4969859;28;20508;-73
2022/11/04 03:48:05;;;;;;;3.23;1.40;;;13.50;80.20;;;-142.21;100.00;112049.66;5010979;28;20447;-73
2022/11/04 03:50:40;;;;;;;2.33;1.77;;;13.50;80.70;;;-142.21;100.00;112049.66;5029087;28;20552;-74
2022/11/04 03:53:09;;;;;;;3.47;1.80;;;13.40;81.40;;;-142.21;100.00;112049.66;5029151;28;20921;-74
2022/11/04 03:56:02;;;;;;;1.97;1.73;;;13.30;81.10;;;-142.21;100.00;112049.66;5024383;28;20451;-73
2022/11/04 03:58:44;;;;;;;3.20;1.20;;;13.40;81.10;;;-142.21;100.00;112049.66;5017535;28;20486;-73
2022/11/04 04:01:28;;;;;;;3.93;1.80;;;13.40;81.20;;;-142.21;100.00;112049.66;5007228;28;20437;-73
2022/11/04 04:04:04;;;;;;;2.03;1.40;;;13.50;80.70;;;-142.21;100.00;112049.66;4967000;28;20814;-73
2022/11/04 04:06:36;;;;;;;1.80;1.30;;;13.60;80.50;;;-142.21;100.00;112049.66;4971570;28;20548;-73
2022/11/04 04:09:18;;;;;;;1.40;1.10;;;13.70;80.20;;;-142.21;100.00;112049.66;5015439;28;20547;-72
2022/11/04 04:11:55;;;;;;;2.20;1.10;;;13.80;80.10;;;-142.21;100.00;112049.66;5017007;28;20433;-73
2022/11/04 04:14:40;;;;;;;1.50;1.07;;;13.80;79.80;;;-142.21;100.00;112049.66;5021779;28;20492;-73
2022/11/04 04:17:15;;;;;;;2.50;1.20;;;13.90;79.60;;;-142.21;100.00;112049.66;5023165;28;20451;-73
2022/11/04 04:19:51;;;;;;;1.90;1.43;;;14.00;79.40;;;-142.21;100.00;112049.66;5034424;28;20579;-73
2022/11/04 04:22:23;;;;;;;2.97;1.70;;;14.00;79.20;;;-142.21;100.00;112049.66;5029925;28;20524;-73
2022/11/04 04:27:43;;;;;;;2.53;1.70;;;14.00;79.00;;;-142.21;100.00;112049.66;5015420;28;20481;-74
2022/11/04 04:30:13;;;;;;;4.17;2.10;;;14.10;79.10;;;-142.21;100.00;112049.66;5018401;28;20468;-74
2022/11/04 04:32:45;;;;;;;2.43;1.63;;;14.10;79.10;;;-142.21;100.00;112049.66;5025111;28;20437;-74
2022/11/04 04:46:32;;;;;;;1.97;1.50;;;13.90;78.80;;;-142.21;100.00;112049.66;5023281;28;20440;-73
2022/11/04 04:49:05;;;;;;;3.47;1.37;;;13.80;79.00;;;-142.21;100.00;112049.66;5030935;28;20442;-73
2022/11/04 04:51:41;;;;;;;2.50;1.30;;;13.80;79.30;;;-142.21;100.00;112049.66;5015166;28;20484;-73
2022/11/04 04:54:08;;;;;;;3.63;1.50;;;13.80;79.20;;;-142.21;100.00;112049.66;5021335;28;20441;-73
2022/11/04 04:56:36;;;;;;;1.70;1.23;;;13.80;80.10;;;-142.21;100.00;112049.66;5033730;28;20952;-73
2022/11/04 04:59:03;;;;;;;2.13;1.27;;;13.80;79.10;;;-142.21;100.00;112049.66;5002729;28;20478;-73
2022/11/04 05:01:32;;;;;;;2.47;1.40;;;13.80;80.00;;;-142.21;100.00;112049.66;5034123;28;20701;-73
2022/11/04 05:04:03;;;;;;;3.10;1.57;;;13.80;79.10;;;-142.21;100.00;112049.66;5026367;28;20521;-79
2022/11/04 05:06:30;;;;;;;3.53;1.53;;;13.80;79.10;;;-142.21;100.00;112049.66;5015724;28;20478;-75
2022/11/04 05:09:01;;;;;;;2.07;1.70;;;13.70;79.10;;;-142.21;100.00;112049.66;5013796;28;20504;-76
2022/11/04 05:11:29;;;;;;;1.77;1.40;;;13.60;79.20;;;-142.21;100.00;112049.66;5015778;28;20529;-75
2022/11/04 05:13:57;;;;;;;1.40;1.30;;;13.70;79.10;;;-142.21;100.00;112049.66;5022414;28;20993;-75
2022/11/04 05:16:24;;;;;;;1.77;1.40;;;13.70;78.90;;;-142.21;100.00;112049.66;5030687;28;20522;-75
2022/11/04 05:18:52;;;;;;;1.83;1.30;;;13.70;78.90;;;-142.21;100.00;112049.66;5014204;28;20493;-75
2022/11/04 05:21:19;;;;;;;1.57;1.23;;;13.70;78.80;;;-142.21;100.00;112049.66;5014631;28;20480;-75
2022/11/04 05:23:46;;;;;;;1.77;1.50;;;13.70;78.70;;;-142.21;100.00;112049.66;5020074;28;20786;-75
2022/11/04 05:26:17;;;;;;;4.10;1.23;;;13.70;78.60;;;-142.21;100.00;112049.66;5033450;28;20449;-75
2022/11/04 05:28:44;;;;;;;1.30;1.20;;;13.70;78.80;;;-142.21;100.00;112049.66;5028420;28;20452;-74
2022/11/04 05:31:12;;;;;;;2.23;1.40;;;13.70;78.90;;;-142.21;100.00;112049.66;5014133;28;20542;-75
2022/11/04 05:33:39;;;;;;;4.27;1.50;;;13.60;78.70;;;-142.21;100.00;112049.66;4979844;28;20484;-75
2022/11/04 05:36:09;;;;;;;2.33;1.40;;;13.60;78.80;;;-142.21;100.00;112049.66;4979579;28;20459;-75
2022/11/04 05:38:37;;;;;;;3.03;1.33;;;13.70;78.90;;;-142.21;100.00;112049.66;5032950;28;20532;-75
2022/11/04 05:41:06;;;;;;;2.77;1.47;;;13.60;78.80;;;-142.21;100.00;112049.66;5029924;28;20525;-75
2022/11/04 05:43:36;;;;;;;1.50;1.40;;;13.70;78.90;;;-142.21;100.00;112049.66;5018373;28;20871;-75
2022/11/04 05:46:04;;;;;;;2.43;1.40;;;13.70;78.90;;;-142.21;100.00;112049.66;5013964;28;20486;-75
2022/11/04 05:48:31;;;;;;;1.87;1.23;;;13.70;78.80;;;-142.21;100.00;112049.66;5022684;28;20540;-75
2022/11/04 05:50:58;;;;;;;1.97;1.40;;;13.70;78.60;;;-142.21;100.00;112049.66;5031294;28;20457;-74
2022/11/04 05:53:25;;;;;;;2.60;1.30;;;13.70;78.70;;;-142.21;100.00;112049.66;5013686;28;20998;-75
2022/11/04 05:55:52;;;;;;;3.00;1.50;;;13.70;78.80;;;-142.21;100.00;112049.66;5025447;28;20449;-75
2022/11/04 05:58:19;;;;;;;3.00;1.30;;;13.70;78.90;;;-142.21;100.00;112049.66;4978668;28;20465;-75
2022/11/04 06:00:48;;;;;;;3.10;1.30;;;13.70;78.60;;;-142.21;100.00;112049.66;5019073;28;20491;-75
2022/11/04 06:03:15;;;;;;;2.67;1.17;;;13.70;78.60;;;-142.21;100.00;112049.66;5033009;28;20445;-75
2022/11/04 06:05:42;;;;;;;3.03;1.53;;;13.70;78.40;;;-142.21;100.00;112049.66;5029056;28;21011;-75
2022/11/04 06:08:09;;;;;;;2.93;1.60;;;13.60;78.40;;;-142.21;100.00;112049.66;5033171;28;20445;-75
2022/11/04 06:10:37;;;;;;;1.47;1.30;;;13.50;78.50;;;-142.21;100.00;112049.66;4945069;28;20569;-70
2022/11/04 06:13:04;;;;;;;1.80;1.43;;;13.40;78.50;;;-142.21;100.00;112049.66;5015902;28;20445;-70
2022/11/04 06:15:32;;;;;;;4.17;1.30;;;13.30;78.90;;;-142.21;100.00;112049.66;5031789;28;20452;-71
2022/11/04 06:18:00;;;;;;;1.53;1.40;;;13.20;79.30;;;-142.21;100.00;112049.66;5019542;28;20521;-73
2022/11/04 06:20:28;;;;;;;2.00;1.27;;;13.10;79.50;;;-142.21;100.00;112049.66;5015926;28;20738;-73
2022/11/04 06:22:55;;;;;;;1.63;1.33;;;13.10;79.70;;;-142.21;100.00;112049.66;5029677;28;20462;-73
2022/11/04 06:25:23;;;;;;;3.13;1.30;;;13.10;79.80;;;-142.21;100.00;112049.66;5013205;28;20485;-73
2022/11/04 06:27:50;;;;;;;1.80;1.40;;;13.10;79.90;;;-142.21;100.00;112049.66;5011962;28;20614;-72
2022/11/04 06:30:17;;;;;;;2.90;1.17;;;13.20;79.90;;;-142.21;100.00;112049.66;5026290;28;20442;-70
2022/11/04 06:32:44;;;;;;;2.70;1.20;;;13.10;80.10;;;-142.21;100.00;112049.66;5014173;28;20541;-71
2022/11/04 06:35:13;;;;;;;5.43;2.00;;;13.00;80.20;;;-142.21;100.00;112049.66;5030126;28;20484;-69
2022/11/04 06:37:41;;;;;;;6.93;1.60;;;13.00;80.30;;;-142.21;100.00;112049.66;5012707;28;20449;-71
2022/11/04 06:40:12;;;;;;;4.60;1.90;;;13.00;80.20;;;-142.21;100.00;112049.66;5012688;28;20481;-72
2022/11/04 06:42:41;;;;;;;1.53;1.33;;;13.10;80.10;;;-142.21;100.00;112049.66;5026064;28;20448;-72
2022/11/04 06:45:10;;;;;;;1.77;1.27;;;13.10;79.80;;;-142.21;100.00;112049.66;5030099;28;20449;-72
2022/11/04 06:47:37;;;;;;;2.40;1.30;;;13.20;79.70;;;-142.21;100.00;112049.66;4961701;28;20525;-72
2022/11/04 06:50:05;;;;;;;2.90;1.50;;;13.20;79.50;;;-142.21;100.00;112049.66;4963301;28;20533;-72
2022/11/04 06:52:34;;;;;;;1.77;1.40;;;13.20;79.50;;;-142.21;100.00;112049.66;5013957;28;20930;-72
2022/11/04 06:55:01;;;;;;;8.50;2.00;;;13.20;79.20;;;-142.21;100.00;112049.66;5027984;28;20530;-71
2022/11/04 06:57:28;;;;;;;2.77;1.40;;;13.30;79.40;;;-142.21;100.00;112049.66;5018111;28;20500;-71
2022/11/04 06:59:55;;;;;;;2.10;1.50;;;13.30;79.20;;;-142.21;100.00;112049.66;5029338;28;20483;-72
2022/11/04 07:02:22;;;;;;;1.60;1.50;;;13.30;79.30;;;-142.21;100.00;112049.66;5031066;28;21162;-72
2022/11/04 07:04:50;;;;;;;1.67;1.57;;;13.30;79.50;;;-142.21;100.00;112049.66;5032349;28;20481;-72
2022/11/04 07:07:17;;;;;;;1.67;1.50;;;13.30;79.40;;;-142.21;100.00;112049.66;5048212;28;20528;-72
2022/11/04 07:09:46;;;;;;;2.30;1.77;;;13.30;79.40;;;-142.21;100.00;112049.66;5031065;28;20575;-79
2022/11/04 07:12:13;;;;;;;2.83;2.10;;;13.30;79.60;;;-142.21;100.00;112049.66;5014353;28;20454;-72
2022/11/04 07:14:41;;;;;;;5.30;2.37;;;13.30;79.70;;;-142.21;100.00;112049.66;5042888;28;20456;-73
2022/11/04 07:17:08;;;;;;;3.13;2.30;;;13.30;79.70;;;-142.21;100.00;112049.66;5044661;28;20441;-70
2022/11/04 07:19:36;;;;;;;3.27;2.07;;;13.20;79.50;;;-142.21;100.00;112049.66;5033892;28;20478;-70
2022/11/04 07:22:03;;;;;;;2.50;2.30;;;13.30;79.50;;;-142.21;100.00;112049.66;5020438;28;20469;-70
2022/11/04 07:24:31;;;;;;;3.80;2.53;;;13.30;79.50;;;-142.21;100.00;112049.66;5017102;28;20445;-70
2022/11/04 07:27:00;;;;;;;2.07;1.93;;;13.40;79.60;;;-142.21;100.00;112049.66;5022608;28;20444;-70
2022/11/04 07:29:27;;;;;;;1.97;1.77;;;13.40;79.90;;;-142.21;100.00;112049.66;5022609;28;20481;-70
2022/11/04 07:31:55;;;;;;;1.70;1.60;;;13.40;79.90;;;-142.21;100.00;112049.66;5018504;28;20442;-71
2022/11/04 07:34:22;;;;;;;2.23;1.50;;;13.40;80.10;;;-142.21;100.00;112049.66;5011533;28;20450;-70
2022/11/04 07:36:52;;;;;;;4.00;1.83;;;13.40;80.10;;;-142.21;100.00;112049.66;5023053;28;20876;-70
2022/11/04 07:39:20;;;;;;;4.00;1.50;;;13.50;80.00;;;-142.21;100.00;112049.66;5011820;28;20566;-70
2022/11/04 07:41:47;;;;;;;2.27;1.40;;;13.50;79.70;;;-142.21;100.00;112049.66;5014207;28;20845;-70
2022/11/04 07:44:16;;;;;;;3.33;2.00;;;13.50;79.70;;;-142.21;100.00;112049.66;5031439;28;20793;-70
2022/11/04 07:46:43;;;;;;;2.93;1.70;;;13.60;79.80;;;-142.21;100.00;112049.66;5031437;28;20503;-69
2022/11/04 07:49:11;;;;;;;4.43;2.00;;;13.60;79.60;;;-142.21;100.00;112049.66;5030737;28;20453;-70
2022/11/04 07:51:38;;;;;;;3.33;2.13;;;13.60;79.60;;;-142.21;100.00;112049.66;5030781;28;20515;-70
2022/11/04 07:54:05;;;;;;;2.90;2.37;;;13.60;79.60;;;-142.21;100.00;112049.66;5030802;28;20484;-70
2022/11/04 07:56:33;;;;;;;5.33;3.50;;;13.70;80.00;;;-142.21;100.00;112049.66;5030962;28;20537;-70
2022/11/04 07:59:00;;;;;;;5.27;4.27;;;13.70;80.30;;;-142.21;100.00;112049.66;5030523;28;20445;-71
2022/11/04 08:01:28;;;;;;;4.67;3.07;;;13.70;80.30;;;-142.21;100.00;112049.66;5031339;28;20876;-69
2022/11/04 08:03:56;;;;;;;5.90;2.63;;;13.80;80.50;;;-142.21;100.00;112049.66;5030307;28;20441;-70
2022/11/04 08:06:23;;;;;;;3.23;2.50;;;13.80;80.50;;;-142.21;100.00;112049.66;5031310;28;20472;-70
2022/11/04 08:08:52;;;;;;;4.50;3.00;;;13.90;80.80;;;-142.21;100.00;112049.66;5030988;28;20520;-70
2022/11/04 08:11:24;;;;;;;6.37;3.60;;;13.80;80.50;;;-142.21;100.00;112049.66;5030971;28;20507;-70
2022/11/04 08:13:51;;;;;;;4.47;3.60;;;13.90;80.60;;;-142.21;100.00;112049.66;5030028;28;20437;-70
2022/11/04 08:16:22;;;;;;;6.50;4.10;;;14.00;80.40;;;-142.21;100.00;112049.66;5030764;28;20448;-70
2022/11/04 08:18:52;;;;;;;5.30;4.60;;;14.00;80.50;;;-142.21;100.00;112049.66;5011764;28;20505;-70
2022/11/04 08:21:21;;;;;;;4.67;4.27;;;14.10;80.50;;;-142.21;100.00;112049.66;5011366;28;20474;-71
2022/11/04 08:23:50;;;;;;;5.70;4.40;;;14.10;80.50;;;-142.21;100.00;112049.66;5011124;28;20481;-70
2022/11/04 08:26:20;;;;;;;4.93;3.93;;;14.20;80.50;;;-142.21;100.00;112049.66;5011516;28;20460;-70
2022/11/04 08:28:47;;;;;;;13.10;8.80;;;14.30;80.60;;;-142.21;100.00;112049.66;5017596;28;20518;-70
2022/11/04 08:31:17;;;;;;;9.10;6.70;;;14.30;79.70;;;-142.21;100.00;112049.66;5029557;28;20441;-70
2022/11/04 08:33:45;;;;;;;6.47;5.57;;;14.30;79.70;;;-142.21;100.00;112049.66;5030836;28;20524;-70
2022/11/04 08:36:17;;;;;;;5.90;3.90;;;14.30;79.90;;;-142.21;100.00;112049.66;5030420;28;20496;-71
2022/11/04 08:38:45;;;;;;;4.23;3.37;;;14.40;79.90;;;-142.21;100.00;112049.66;5030638;28;20487;-70
2022/11/04 08:41:15;;;;;;;3.60;2.70;;;14.50;79.20;;;-142.21;100.00;112049.66;4979394;28;20485;-70
2022/11/04 08:43:42;;;;;;;3.37;2.47;;;14.50;79.10;;;-142.21;100.00;112049.66;5030723;28;20507;-71
2022/11/04 08:46:11;;;;;;;2.40;2.10;;;14.60;78.50;;;-142.21;100.00;112049.66;5030234;28;20445;-70
2022/11/04 08:48:40;;;;;;;3.77;2.20;;;14.70;77.70;;;-142.21;100.00;112049.66;5030670;28;20445;-70
2022/11/04 08:51:16;;;;;;;5.30;2.73;;;14.80;77.50;;;-142.21;100.00;112049.66;5030066;28;20440;-70
2022/11/04 08:53:44;;;;;;;5.47;3.67;;;14.90;77.30;;;-142.21;100.00;112049.66;5030759;28;20433;-70
2022/11/04 08:56:18;;;;;;;3.43;3.00;;;15.00;77.50;;;-142.21;100.00;112049.66;5030386;28;20478;-71
2022/11/04 08:58:46;;;;;;;3.50;2.60;;;15.10;76.90;;;-142.21;100.00;112049.66;5030256;28;20444;-70
2022/11/04 09:01:14;;;;;;;3.80;2.40;;;15.10;76.30;;;-142.21;100.00;112049.66;5029941;28;20615;-71
2022/11/04 09:03:42;;;;;;;2.73;2.33;;;15.20;76.20;;;-142.21;100.00;112049.66;5030697;28;20445;-70
2022/11/04 09:06:14;;;;;;;3.63;2.57;;;15.30;76.30;;;-142.21;100.00;112049.66;5033610;28;20475;-70
2022/11/04 09:08:43;;;;;;;3.13;2.50;;;15.40;75.80;;;-142.21;100.00;112049.66;5034098;28;20789;-70
2022/11/04 09:11:15;;;;;;;3.50;2.17;;;15.40;75.40;;;-142.21;100.00;112049.66;5033250;28;20429;-70
2022/11/04 09:13:43;;;;;;;4.77;2.90;;;15.50;75.20;;;-142.21;100.00;112049.66;5033529;28;20444;-70
2022/11/04 09:16:13;;;;;;;4.43;2.97;;;15.60;74.50;;;-142.21;100.00;112049.66;5033574;28;20445;-70
2022/11/04 09:18:40;;;;;;;3.80;2.60;;;15.80;74.40;;;-142.21;100.00;112049.66;5015792;28;20520;-70
2022/11/04 09:21:10;;;;;;;4.90;2.37;;;15.80;74.20;;;-142.21;100.00;112049.66;5013392;28;20496;-70
2022/11/04 09:23:45;;;;;;;4.93;2.80;;;15.80;73.80;;;-142.21;100.00;112049.66;5014087;28;20549;-70
2022/11/04 09:26:15;;;;;;;2.50;1.93;;;16.00;73.50;;;-142.21;97.87;112049.66;5013519;28;20533;-70
2022/11/04 09:28:43;;;;;;;2.77;1.80;;;16.00;71.70;;;-142.21;96.50;112049.66;5032090;28;20440;-70
2022/11/04 09:31:13;;;;;;;2.90;1.80;;;16.20;71.20;;;-142.21;97.36;112049.66;5033370;28;20514;-70
2022/11/04 09:33:41;;;;;;;3.47;2.10;;;16.30;71.60;;;-142.21;96.76;112049.66;5033582;28;20484;-71
2022/11/04 09:36:10;;;;;;;2.90;2.10;;;16.40;71.30;;;-142.21;96.39;112049.66;5032977;28;20511;-70
2022/11/04 09:38:39;;;;;;;3.53;2.00;;;16.50;71.60;;;-142.21;92.10;112049.66;5033550;28;20499;-70
2022/11/04 09:41:39;;;;;;;3.20;1.70;;;16.60;69.10;;;-142.21;92.82;112049.66;5033065;28;20539;-70
2022/11/04 09:44:21;;;;;;;2.47;1.80;;;16.60;68.30;;;-142.21;91.95;112049.66;5032874;28;20460;-70
2022/11/04 09:46:52;;;;;;;2.47;1.70;;;16.70;68.40;;;-142.21;91.76;112049.66;5040559;28;20440;-71
2022/11/04 09:49:21;;;;;;;3.23;1.60;;;16.70;68.50;;;-142.21;91.03;112049.66;5052332;28;20527;-71
2022/11/04 09:51:50;;;;;;;4.97;1.50;;;16.70;68.30;;;-142.21;90.87;112049.66;5053290;28;20482;-70
2022/11/04 09:54:24;;;;;;;2.17;1.50;;;16.60;67.90;;;-142.21;90.01;112049.66;5052424;28;20452;-70
2022/11/04 09:56:57;;;;;;;1.90;1.40;;;16.60;67.30;;;-142.21;89.41;112049.66;5045630;28;20536;-70
2022/11/04 09:59:28;;;;;;;2.43;1.90;;;16.60;68.00;;;-142.21;90.11;112049.66;5032800;28;20441;-70
2022/11/04 10:02:20;;;;;;;3.60;1.30;;;16.40;67.20;;;-142.21;91.26;112049.66;5032799;28;20504;-70
2022/11/04 10:05:07;;;;;;;2.23;1.40;;;16.40;68.00;;;-142.21;91.51;112049.66;5032639;28;20801;-70
2022/11/04 10:08:22;;;;;;;3.37;1.53;;;16.40;68.10;;;-142.21;90.40;112049.66;5033004;28;20469;-70
2022/11/04 10:11:05;;;;;;;5.63;2.07;;;16.50;67.20;;;-142.21;91.67;112049.66;5028809;28;20560;-70
2022/11/04 10:13:54;;;;;;;4.70;1.60;;;16.50;68.10;;;-142.21;91.84;112049.66;5019166;28;20464;-70
2022/11/04 10:16:48;;;;;;;1.93;1.50;;;16.60;68.00;;;-142.21;89.79;112049.66;5031730;28;20436;-70
2022/11/04 10:19:40;;;;;;;3.33;1.93;;;16.50;66.90;;;-142.21;90.19;112049.66;5012333;28;20493;-72
2022/11/04 10:22:20;;;;;;;2.27;1.43;;;16.50;66.90;;;-142.21;89.25;112049.66;5004370;28;20455;-71
2022/11/04 10:25:01;;;;;;;2.03;1.37;;;16.40;66.80;;;-142.21;90.67;112049.66;5012726;28;20434;-71
2022/11/04 10:27:33;;;;;;;2.97;1.60;;;16.30;67.30;;;-142.21;90.45;112049.66;5012913;28;20841;-70
2022/11/04 10:30:07;;;;;;;3.43;1.50;;;16.30;67.90;;;-142.21;91.00;112049.66;5012069;28;20988;-70
2022/11/04 10:32:46;;;;;;;2.13;1.57;;;16.30;67.60;;;-142.21;90.90;112049.66;5013034;28;20439;-70
2022/11/04 10:35:25;;;;;;;3.10;1.57;;;16.30;67.90;;;-142.21;89.16;112049.66;5012191;28;20459;-70
2022/11/04 10:37:55;;;;;;;2.50;1.60;;;16.30;67.00;;;-142.21;89.22;112049.66;5012947;28;20430;-70
2022/11/04 10:40:29;;;;;;;2.40;1.73;;;16.40;67.00;;;-142.21;89.83;112049.66;5012126;28;20518;-70
2022/11/04 10:43:02;;;;;;;1.57;1.20;;;16.30;67.10;;;-142.21;88.45;112049.66;5029369;28;20525;-70
2022/11/04 10:45:42;;;;;;;3.43;1.50;;;16.40;66.70;;;-142.21;88.19;112049.66;5032381;28;20433;-70
2022/11/04 10:48:20;;;;;;;1.73;1.50;;;16.40;66.20;;;-142.21;89.59;112049.66;5031593;28;20454;-70
2022/11/04 10:50:55;;;;;;;2.10;1.27;;;16.40;66.80;;;-142.21;88.80;112049.66;5032668;28;20859;-70